Time;durP1;ratioP1;P1;durP2;ratioP2;P2;SDS_P1;SDS_P2;PMS_P1;PMS_P2;Temp;Humidity;BMP_temperature;BMP_pressure;BME280_temperature;BME280_humidity;BME280_pressure;Samples;Min_cycle;Max_cycle;Signal;HPM_P1;HPM_P2
2020/12/29 00:02:08;;;;;;;9.43;8.47;;;2.90;99.90;;;;;;5132155;27;20204;-85
2020/12/29 00:04:34;;;;;;;8.53;7.73;;;2.80;99.90;;;;;;5132363;27;20212;-83
2020/12/29 00:07:00;;;;;;;10.10;8.70;;;2.90;99.90;;;;;;5132472;27;20261;-84
2020/12/29 00:09:28;;;;;;;8.97;8.07;;;2.90;99.90;;;;;;5132038;27;20295;-84
2020/12/29 00:11:55;;;;;;;9.80;8.77;;;2.90;99.90;;;;;;5132277;27;20312;-84
2020/12/29 00:14:24;;;;;;;9.00;8.10;;;2.80;99.90;;;;;;5132561;27;20306;-85
2020/12/29 00:16:51;;;;;;;8.63;7.83;;;2.80;99.90;;;;;;5132025;27;20231;-83
2020/12/29 00:19:20;;;;;;;9.80;8.67;;;2.80;99.90;;;;;;5132003;27;20198;-86
2020/12/29 00:21:47;;;;;;;9.40;8.50;;;2.90;99.90;;;;;;5132179;27;20638;-84
2020/12/29 00:24:14;;;;;;;9.77;8.43;;;2.80;99.90;;;;;;5131709;27;20647;-84
2020/12/29 00:26:40;;;;;;;11.10;9.03;;;2.80;99.90;;;;;;5131607;27;20206;-84
2020/12/29 00:29:07;;;;;;;9.33;8.07;;;2.80;99.90;;;;;;5131590;27;20197;-84
2020/12/29 00:31:35;;;;;;;9.77;8.77;;;2.90;99.90;;;;;;5131910;27;20231;-83
2020/12/29 00:34:02;;;;;;;10.10;8.90;;;2.90;99.90;;;;;;5131391;27;20236;-84
2020/12/29 00:36:29;;;;;;;9.27;8.33;;;2.90;99.90;;;;;;5131793;27;20650;-83
2020/12/29 00:38:55;;;;;;;10.30;9.13;;;2.90;99.90;;;;;;5130584;27;20676;-84
2020/12/29 00:41:22;;;;;;;9.97;8.90;;;2.80;99.90;;;;;;5130963;27;20305;-83
2020/12/29 00:43:48;;;;;;;9.23;8.33;;;2.90;99.90;;;;;;5131363;27;21143;-83
2020/12/29 00:46:16;;;;;;;9.63;8.63;;;2.90;99.90;;;;;;5131451;27;20291;-83
2020/12/29 00:48:43;;;;;;;9.37;8.37;;;2.90;99.90;;;;;;5131551;27;20599;-83
2020/12/29 00:51:11;;;;;;;10.07;8.97;;;2.90;99.90;;;;;;5131075;27;20207;-85
2020/12/29 00:53:37;;;;;;;9.73;8.80;;;2.80;99.90;;;;;;5130977;27;20776;-84
2020/12/29 00:56:05;;;;;;;9.83;8.90;;;2.80;99.90;;;;;;5130785;27;20328;-83
2020/12/29 00:58:32;;;;;;;9.30;8.07;;;2.90;99.90;;;;;;5131001;27;20201;-83
2020/12/29 01:00:58;;;;;;;10.03;9.00;;;2.80;99.90;;;;;;5131555;27;20561;-83
2020/12/29 01:03:25;;;;;;;9.77;8.73;;;2.80;99.90;;;;;;5131088;27;20422;-83
2020/12/29 01:05:53;;;;;;;10.47;9.33;;;2.80;99.90;;;;;;5131143;27;20268;-84
2020/12/29 01:08:20;;;;;;;10.40;9.30;;;2.90;99.90;;;;;;5130850;27;20652;-84
2020/12/29 01:10:51;;;;;;;12.40;10.27;;;2.90;99.90;;;;;;5131146;27;20213;-83
2020/12/29 01:13:17;;;;;;;11.33;10.07;;;2.90;99.90;;;;;;5130671;27;20221;-83
2020/12/29 01:15:44;;;;;;;13.00;9.83;;;2.90;99.90;;;;;;5130424;27;20216;-83
2020/12/29 01:18:10;;;;;;;12.13;9.27;;;2.90;99.90;;;;;;5131178;27;20298;-83
2020/12/29 01:20:36;;;;;;;11.13;9.83;;;2.90;99.90;;;;;;5130648;27;20209;-84
2020/12/29 01:23:03;;;;;;;12.13;10.03;;;2.90;99.90;;;;;;5130542;27;20205;-84
2020/12/29 01:25:30;;;;;;;12.53;10.37;;;2.90;99.90;;;;;;5130533;27;20232;-84
2020/12/29 01:27:56;;;;;;;13.03;10.63;;;2.90;99.90;;;;;;5130353;27;20206;-83
2020/12/29 01:30:23;;;;;;;12.53;10.63;;;2.90;99.90;;;;;;5130543;27;20208;-83
2020/12/29 01:32:49;;;;;;;13.50;10.97;;;2.90;99.90;;;;;;5130554;27;20206;-83
2020/12/29 01:35:15;;;;;;;13.47;11.13;;;2.90;99.90;;;;;;5130225;27;20567;-83
2020/12/29 01:37:43;;;;;;;12.63;10.53;;;2.90;99.90;;;;;;5130613;27;20237;-82
2020/12/29 01:40:11;;;;;;;12.57;10.87;;;2.90;99.90;;;;;;5130108;27;20205;-83
2020/12/29 01:42:38;;;;;;;11.83;10.63;;;2.90;99.90;;;;;;5130420;27;20300;-82
2020/12/29 01:45:07;;;;;;;13.20;11.07;;;3.00;99.90;;;;;;5130377;27;20209;-83
2020/12/29 01:47:36;;;;;;;12.03;10.43;;;3.00;99.90;;;;;;5129968;27;20686;-83
2020/12/29 01:50:07;;;;;;;12.10;9.83;;;3.00;99.90;;;;;;5130087;27;20254;-82
2020/12/29 01:52:33;;;;;;;13.93;11.30;;;2.90;99.90;;;;;;5129990;27;20186;-83
2020/12/29 01:55:00;;;;;;;14.60;11.10;;;2.90;99.90;;;;;;5129547;27;20776;-83
2020/12/29 01:57:27;;;;;;;13.63;10.63;;;2.90;99.90;;;;;;5129926;27;20231;-84
2020/12/29 01:59:53;;;;;;;13.60;10.97;;;2.90;99.90;;;;;;5130119;27;20217;-83
2020/12/29 02:02:20;;;;;;;12.23;10.40;;;2.90;99.90;;;;;;5129981;27;20205;-82
2020/12/29 02:04:48;;;;;;;13.70;11.40;;;2.90;99.90;;;;;;5129980;27;20226;-83
2020/12/29 02:07:16;;;;;;;13.33;11.00;;;2.90;99.90;;;;;;5129936;27;20211;-83
2020/12/29 02:09:43;;;;;;;13.57;10.87;;;2.90;99.90;;;;;;5129699;27;20735;-83
2020/12/29 02:12:26;;;;;;;12.33;11.03;;;2.90;99.90;;;;;;5129626;27;20306;-82
2020/12/29 02:14:54;;;;;;;12.03;10.07;;;2.90;99.90;;;;;;5129933;27;20211;-83
2020/12/29 02:17:20;;;;;;;12.03;10.83;;;2.90;99.90;;;;;;5129667;27;20246;-84
2020/12/29 02:19:47;;;;;;;14.10;10.90;;;2.90;99.90;;;;;;5129759;27;20253;-84
2020/12/29 02:22:19;;;;;;;15.33;11.10;;;2.90;99.90;;;;;;5129579;27;20202;-83
2020/12/29 02:24:51;;;;;;;13.47;10.73;;;2.90;99.90;;;;;;5129483;27;20208;-85
2020/12/29 02:27:18;;;;;;;12.37;10.83;;;2.90;99.90;;;;;;5129742;27;20213;-83
2020/12/29 02:29:45;;;;;;;13.97;11.70;;;2.90;99.90;;;;;;5129754;27;20253;-82
2020/12/29 02:32:12;;;;;;;13.83;11.10;;;2.90;99.90;;;;;;5129807;27;20686;-83
2020/12/29 02:34:39;;;;;;;12.53;10.93;;;2.90;99.90;;;;;;5129619;27;20366;-84
2020/12/29 02:37:07;;;;;;;15.27;11.17;;;2.90;99.90;;;;;;5129551;27;20699;-82
2020/12/29 02:39:36;;;;;;;12.23;10.57;;;2.90;99.90;;;;;;5129643;27;20244;-83
2020/12/29 02:42:03;;;;;;;13.00;10.67;;;2.90;99.90;;;;;;5129865;27;20222;-84
2020/12/29 02:44:29;;;;;;;14.27;11.37;;;2.90;99.90;;;;;;5129890;27;20265;-83
2020/12/29 02:46:55;;;;;;;14.13;11.73;;;2.90;99.90;;;;;;5129818;27;20208;-82
2020/12/29 02:49:22;;;;;;;13.67;11.20;;;2.90;99.90;;;;;;5129763;27;20241;-83
2020/12/29 02:51:48;;;;;;;14.00;11.83;;;2.90;99.90;;;;;;5129657;27;20206;-83
2020/12/29 02:54:15;;;;;;;15.13;11.27;;;2.90;99.90;;;;;;5129549;27;20257;-83
2020/12/29 02:56:43;;;;;;;13.07;11.43;;;2.90;99.90;;;;;;5129216;27;20237;-82
2020/12/29 02:59:10;;;;;;;13.03;11.00;;;2.90;99.90;;;;;;5129444;27;20201;-83
2020/12/29 03:01:36;;;;;;;14.00;10.87;;;2.90;99.90;;;;;;5129024;27;20209;-84
2020/12/29 03:04:03;;;;;;;12.60;11.03;;;2.90;99.90;;;;;;5132382;27;20641;-84
2020/12/29 03:06:29;;;;;;;13.43;11.40;;;2.90;99.90;;;;;;5133213;27;20269;-87
2020/12/29 03:08:56;;;;;;;13.47;10.73;;;2.90;99.90;;;;;;5133291;27;20629;-83
2020/12/29 03:11:27;;;;;;;13.23;10.87;;;2.90;99.90;;;;;;5132711;27;20271;-83
2020/12/29 03:13:55;;;;;;;13.33;11.57;;;2.90;99.90;;;;;;5133324;27;20308;-84
2020/12/29 03:16:22;;;;;;;12.83;11.13;;;2.90;99.90;;;;;;5132896;27;20230;-83
2020/12/29 03:18:48;;;;;;;14.07;11.33;;;2.90;99.90;;;;;;5133148;27;20209;-83
2020/12/29 03:21:15;;;;;;;12.97;11.13;;;2.90;99.90;;;;;;5132844;27;20237;-84
2020/12/29 03:23:41;;;;;;;12.80;11.33;;;2.90;99.90;;;;;;5132605;27;20245;-84
2020/12/29 03:26:08;;;;;;;15.17;11.90;;;2.90;99.90;;;;;;5132788;27;20219;-82
2020/12/29 03:28:34;;;;;;;13.87;11.63;;;2.90;99.90;;;;;;5132785;27;20209;-83
2020/12/29 03:31:01;;;;;;;13.80;11.67;;;2.90;99.90;;;;;;5132517;27;20670;-83
2020/12/29 03:33:28;;;;;;;11.93;10.63;;;2.90;99.90;;;;;;5132600;27;20202;-83
2020/12/29 03:35:54;;;;;;;13.17;11.07;;;3.00;99.90;;;;;;5132735;27;20378;-83
2020/12/29 03:38:21;;;;;;;12.83;11.10;;;3.00;99.90;;;;;;5132584;27;20219;-82
2020/12/29 03:40:47;;;;;;;13.53;11.53;;;2.90;99.90;;;;;;5132168;27;20205;-84
2020/12/29 03:43:14;;;;;;;14.33;11.20;;;2.90;99.90;;;;;;5132287;27;20212;-83
2020/12/29 03:45:42;;;;;;;16.77;12.10;;;2.90;99.90;;;;;;5132613;27;20205;-82
2020/12/29 03:48:10;;;;;;;15.07;12.47;;;2.90;99.90;;;;;;5132739;27;20295;-83
2020/12/29 03:50:37;;;;;;;13.37;11.67;;;2.90;99.90;;;;;;5132387;27;20215;-82
2020/12/29 03:53:04;;;;;;;13.90;11.60;;;2.90;99.90;;;;;;5131742;27;20197;-83
2020/12/29 03:55:30;;;;;;;13.83;11.73;;;2.90;99.90;;;;;;5131361;27;20667;-83
2020/12/29 03:57:57;;;;;;;14.97;11.93;;;2.90;99.90;;;;;;5131720;27;20696;-83
2020/12/29 04:00:23;;;;;;;15.43;12.23;;;2.90;99.90;;;;;;5132228;27;20250;-83
2020/12/29 04:02:50;;;;;;;15.47;11.80;;;2.90;99.90;;;;;;5132132;27;20212;-83
2020/12/29 04:05:17;;;;;;;13.77;11.20;;;2.90;99.90;;;;;;5132389;27;20724;-84
2020/12/29 04:07:44;;;;;;;14.27;11.57;;;2.90;99.90;;;;;;5131984;27;20215;-83
2020/12/29 04:10:11;;;;;;;15.80;11.63;;;2.90;99.90;;;;;;5132304;27;20201;-82
2020/12/29 04:12:38;;;;;;;15.30;12.10;;;2.90;99.90;;;;;;5131838;27;20233;-83
2020/12/29 04:15:05;;;;;;;14.63;11.63;;;2.90;99.90;;;;;;5132326;27;20261;-83
2020/12/29 04:17:33;;;;;;;15.10;12.27;;;2.90;99.90;;;;;;5132067;27;20289;-82
2020/12/29 04:20:00;;;;;;;14.17;11.57;;;2.90;99.90;;;;;;5131936;27;20211;-83
2020/12/29 04:22:30;;;;;;;14.70;11.47;;;2.90;99.90;;;;;;5131951;27;20672;-83
2020/12/29 04:24:56;;;;;;;15.73;12.17;;;2.90;99.90;;;;;;5131876;27;20511;-83
2020/12/29 04:27:23;;;;;;;14.40;12.13;;;2.90;99.90;;;;;;5131750;27;20201;-83
2020/12/29 04:29:49;;;;;;;15.57;12.13;;;2.90;99.90;;;;;;5131777;27;20212;-84
2020/12/29 04:32:16;;;;;;;13.80;11.87;;;2.90;99.90;;;;;;5131728;27;20667;-84
2020/12/29 04:34:42;;;;;;;15.50;12.33;;;2.90;99.90;;;;;;5131811;27;20236;-83
2020/12/29 04:37:09;;;;;;;14.30;11.97;;;2.90;99.90;;;;;;5131374;27;20235;-83
2020/12/29 04:39:36;;;;;;;14.53;12.30;;;2.90;99.90;;;;;;5131561;27;20205;-83
2020/12/29 04:42:05;;;;;;;16.40;13.20;;;2.90;99.90;;;;;;5131465;27;20208;-84
2020/12/29 04:44:33;;;;;;;14.93;12.30;;;2.90;99.90;;;;;;5130967;27;20295;-84
2020/12/29 04:47:01;;;;;;;14.03;12.43;;;2.90;99.90;;;;;;5131289;27;20663;-84
2020/12/29 04:49:27;;;;;;;15.13;12.63;;;2.90;99.90;;;;;;5131199;27;20600;-83
2020/12/29 04:51:57;;;;;;;14.83;12.27;;;2.90;99.90;;;;;;5131265;27;20562;-84
2020/12/29 04:54:26;;;;;;;19.97;14.00;;;2.90;99.90;;;;;;5130773;27;20198;-84
2020/12/29 04:56:57;;;;;;;16.57;13.30;;;2.90;99.90;;;;;;5131087;27;20236;-83
2020/12/29 04:59:23;;;;;;;17.13;13.00;;;2.80;99.90;;;;;;5130989;27;20250;-83
2020/12/29 05:01:50;;;;;;;16.03;13.50;;;2.70;99.90;;;;;;5130573;27;20212;-84
2020/12/29 05:04:16;;;;;;;17.07;13.40;;;2.70;99.90;;;;;;5130558;27;20223;-83
2020/12/29 05:06:43;;;;;;;17.70;13.60;;;2.70;99.90;;;;;;5130740;27;20209;-83
2020/12/29 05:09:09;;;;;;;15.90;13.17;;;2.70;99.90;;;;;;5130792;27;20217;-83
2020/12/29 05:11:36;;;;;;;18.10;14.13;;;2.60;99.90;;;;;;5130524;27;20265;-83
2020/12/29 05:14:04;;;;;;;19.03;14.40;;;2.60;99.90;;;;;;5130401;27;20745;-84
2020/12/29 05:16:35;;;;;;;17.57;14.43;;;2.60;99.90;;;;;;5130696;27;20262;-83
2020/12/29 05:19:05;;;;;;;17.43;14.20;;;2.60;99.90;;;;;;5130778;27;20278;-83
2020/12/29 05:21:31;;;;;;;18.23;13.80;;;2.60;99.90;;;;;;5130726;27;20300;-82
2020/12/29 05:24:02;;;;;;;16.93;14.03;;;2.50;99.90;;;;;;5130513;27;20202;-82
2020/12/29 05:26:29;;;;;;;15.67;13.50;;;2.50;99.90;;;;;;5129494;27;20305;-83
2020/12/29 05:28:55;;;;;;;16.20;13.43;;;2.40;99.90;;;;;;5130476;27;20205;-84
2020/12/29 05:31:23;;;;;;;16.37;13.53;;;2.40;99.90;;;;;;5130477;27;20288;-83
2020/12/29 05:33:49;;;;;;;17.40;13.97;;;2.40;99.90;;;;;;5130327;27;20205;-84
2020/12/29 05:36:17;;;;;;;19.73;14.30;;;2.40;99.90;;;;;;5130531;27;20248;-83
2020/12/29 05:38:43;;;;;;;17.33;14.00;;;2.30;99.90;;;;;;5130189;27;20521;-83
2020/12/29 05:41:20;;;;;;;16.63;13.23;;;2.30;99.90;;;;;;5130434;27;20205;-83
2020/12/29 05:44:01;;;;;;;18.57;14.30;;;2.30;99.90;;;;;;5130152;27;20664;-82
2020/12/29 05:46:30;;;;;;;17.20;14.00;;;2.30;99.90;;;;;;5130386;27;20197;-83
2020/12/29 05:48:57;;;;;;;17.43;13.83;;;2.20;99.90;;;;;;5130306;27;20197;-83
2020/12/29 05:51:23;;;;;;;17.50;14.17;;;2.20;99.90;;;;;;5130458;27;20216;-82
2020/12/29 05:53:51;;;;;;;16.27;12.83;;;2.10;99.90;;;;;;5130465;27;20261;-83
2020/12/29 05:56:19;;;;;;;17.43;13.47;;;2.10;99.90;;;;;;5129682;27;20245;-83
2020/12/29 05:58:45;;;;;;;17.97;13.77;;;2.20;99.90;;;;;;5130175;27;20243;-83
2020/12/29 06:01:12;;;;;;;18.23;14.23;;;2.20;99.90;;;;;;5130157;27;20211;-82
2020/12/29 06:03:41;;;;;;;16.73;13.23;;;2.10;99.90;;;;;;5129687;27;20209;-82
2020/12/29 06:06:08;;;;;;;19.40;14.17;;;2.00;99.90;;;;;;5130376;27;20210;-83
2020/12/29 06:08:36;;;;;;;18.30;13.47;;;2.00;99.90;;;;;;5130056;27;20202;-81
2020/12/29 06:11:11;;;;;;;16.30;12.87;;;1.90;99.90;;;;;;5129666;27;20743;-83
2020/12/29 06:13:38;;;;;;;16.60;13.10;;;1.90;99.90;;;;;;5130061;27;20619;-82
2020/12/29 06:16:05;;;;;;;17.70;14.17;;;2.00;99.90;;;;;;5130148;27;20559;-83
2020/12/29 06:18:36;;;;;;;18.70;14.03;;;1.90;99.90;;;;;;5129896;27;20205;-83
2020/12/29 06:21:07;;;;;;;17.97;14.17;;;2.00;99.90;;;;;;5129985;27;20205;-82
2020/12/29 06:23:42;;;;;;;17.37;13.43;;;2.00;99.90;;;;;;5130002;27;20196;-84
2020/12/29 06:26:09;;;;;;;16.70;12.83;;;2.00;99.90;;;;;;5129643;27;20189;-83
2020/12/29 06:28:44;;;;;;;16.53;12.87;;;2.00;99.90;;;;;;5129401;27;20196;-83
2020/12/29 06:31:11;;;;;;;16.57;13.23;;;2.10;99.90;;;;;;5129818;27;20193;-83
2020/12/29 06:33:39;;;;;;;16.47;13.20;;;2.10;99.90;;;;;;5129902;27;20288;-83
2020/12/29 06:36:09;;;;;;;16.70;13.00;;;2.20;99.90;;;;;;5129702;27;20245;-83
2020/12/29 06:38:38;;;;;;;16.13;13.03;;;2.10;99.90;;;;;;5131835;27;20565;-82
2020/12/29 06:41:07;;;;;;;16.23;12.53;;;2.10;99.90;;;;;;5133725;27;20198;-82
2020/12/29 06:43:34;;;;;;;16.83;12.77;;;2.10;99.90;;;;;;5133783;27;20208;-83
2020/12/29 06:46:11;;;;;;;15.70;12.33;;;2.20;99.90;;;;;;5133350;27;20208;-82
2020/12/29 06:48:38;;;;;;;14.57;12.30;;;2.20;99.90;;;;;;5133668;27;20223;-83
2020/12/29 06:51:13;;;;;;;14.83;12.00;;;2.20;99.90;;;;;;5133831;27;20592;-83
2020/12/29 06:53:40;;;;;;;15.37;12.80;;;2.20;99.90;;;;;;5133460;27;20211;-84
2020/12/29 06:56:13;;;;;;;12.93;11.60;;;2.20;99.90;;;;;;5133155;27;20611;-83
2020/12/29 06:58:40;;;;;;;14.93;11.97;;;2.20;99.90;;;;;;5133568;27;20194;-83
2020/12/29 07:01:20;;;;;;;14.83;12.60;;;2.20;99.90;;;;;;5133568;27;20775;-83
2020/12/29 07:03:47;;;;;;;14.80;12.43;;;2.20;99.90;;;;;;5133338;27;20526;-82
2020/12/29 07:06:15;;;;;;;13.13;10.93;;;2.20;99.90;;;;;;5133397;27;21062;-84
2020/12/29 07:08:41;;;;;;;15.10;12.00;;;2.20;99.90;;;;;;5133055;27;20205;-84
2020/12/29 07:11:17;;;;;;;15.13;12.00;;;2.30;99.90;;;;;;5132936;27;20312;-87
2020/12/29 07:13:48;;;;;;;15.10;12.33;;;2.30;99.90;;;;;;5133303;27;20223;-83
2020/12/29 07:16:22;;;;;;;15.67;12.53;;;2.30;99.90;;;;;;5132693;27;20666;-84
2020/12/29 07:18:48;;;;;;;15.73;12.10;;;2.30;99.90;;;;;;5133067;27;20193;-84
2020/12/29 07:21:34;;;;;;;17.10;12.03;;;2.20;99.90;;;;;;5133158;27;20211;-83
2020/12/29 07:24:04;;;;;;;19.63;14.97;;;2.30;99.90;;;;;;5132760;27;20203;-83
2020/12/29 07:26:37;;;;;;;15.13;13.50;;;2.20;99.90;;;;;;5132694;27;20236;-82
2020/12/29 07:29:05;;;;;;;17.73;13.87;;;2.20;99.90;;;;;;5132896;27;20543;-83
2020/12/29 07:31:33;;;;;;;19.87;15.43;;;2.20;99.90;;;;;;5132525;27;20613;-83
2020/12/29 07:34:02;;;;;;;17.00;13.83;;;2.10;99.90;;;;;;5132968;27;20237;-82
2020/12/29 07:36:29;;;;;;;16.20;13.27;;;2.10;99.90;;;;;;5132593;27;20230;-83
2020/12/29 07:38:59;;;;;;;15.13;12.53;;;2.10;99.90;;;;;;5132469;27;20231;-83
2020/12/29 07:41:28;;;;;;;14.80;12.27;;;2.10;99.90;;;;;;5132772;27;20190;-81
2020/12/29 07:43:54;;;;;;;15.40;13.23;;;2.10;99.90;;;;;;5132266;27;20612;-84
2020/12/29 07:46:20;;;;;;;16.70;12.90;;;2.10;99.90;;;;;;5132685;27;20565;-83
2020/12/29 07:48:49;;;;;;;15.30;12.23;;;2.10;99.90;;;;;;5131673;27;20807;-83
2020/12/29 07:51:15;;;;;;;13.53;11.77;;;2.10;99.90;;;;;;5132196;27;20320;-83
2020/12/29 07:53:42;;;;;;;15.90;12.70;;;2.20;99.90;;;;;;5132215;27;20201;-82
2020/12/29 07:56:10;;;;;;;15.00;12.37;;;2.30;99.90;;;;;;5131865;27;20417;-83
2020/12/29 07:58:36;;;;;;;14.67;12.67;;;2.30;99.90;;;;;;5132098;27;20210;-83
2020/12/29 08:01:03;;;;;;;15.73;12.53;;;2.30;99.90;;;;;;5132217;27;20237;-83
2020/12/29 08:03:29;;;;;;;13.73;11.57;;;2.30;99.90;;;;;;5132140;27;20210;-83
2020/12/29 08:05:56;;;;;;;13.70;11.87;;;2.40;99.90;;;;;;5131962;27;20212;-83
2020/12/29 08:08:22;;;;;;;16.17;12.57;;;2.30;99.90;;;;;;5131951;27;20205;-83
2020/12/29 08:10:49;;;;;;;14.13;11.93;;;2.40;99.90;;;;;;5131676;27;20257;-82
2020/12/29 08:13:20;;;;;;;14.33;11.60;;;2.30;99.90;;;;;;5132055;27;20233;-83
2020/12/29 08:15:48;;;;;;;13.80;11.53;;;2.30;99.90;;;;;;5132111;27;20205;-83
2020/12/29 08:18:16;;;;;;;15.57;11.47;;;2.30;99.90;;;;;;5131934;27;20259;-84
2020/12/29 08:20:45;;;;;;;13.57;11.40;;;2.30;99.90;;;;;;5131582;27;20346;-84
2020/12/29 08:23:11;;;;;;;13.00;11.60;;;2.40;99.90;;;;;;5131934;27;20304;-83
2020/12/29 08:25:38;;;;;;;13.27;11.00;;;2.40;99.90;;;;;;5131106;27;20217;-83
2020/12/29 08:28:05;;;;;;;12.37;10.77;;;2.40;99.90;;;;;;5131682;27;20205;-82
2020/12/29 08:30:33;;;;;;;13.20;11.60;;;2.40;99.90;;;;;;5131428;27;20201;-82
2020/12/29 08:33:03;;;;;;;13.37;10.87;;;2.40;99.90;;;;;;5131788;27;20213;-83
2020/12/29 08:35:32;;;;;;;14.50;12.33;;;2.40;99.90;;;;;;5131585;27;20202;-81
2020/12/29 08:38:23;;;;;;;14.17;11.93;;;2.40;99.90;;;;;;5131284;27;21017;-83
2020/12/29 08:41:03;;;;;;;13.50;11.17;;;2.50;99.90;;;;;;5131029;27;20197;-82
2020/12/29 08:43:30;;;;;;;14.10;10.60;;;2.50;99.90;;;;;;5131485;27;20198;-83
2020/12/29 08:46:02;;;;;;;14.10;11.30;;;2.50;99.90;;;;;;5131509;27;20202;-84
2020/12/29 08:48:29;;;;;;;14.10;11.70;;;2.50;99.90;;;;;;5131557;27;20200;-83
2020/12/29 08:50:55;;;;;;;12.47;10.47;;;2.50;99.90;;;;;;5131314;27;20297;-85
2020/12/29 08:53:25;;;;;;;14.03;11.80;;;2.60;99.90;;;;;;5131439;27;20205;-83
2020/12/29 08:55:51;;;;;;;13.40;11.10;;;2.60;99.90;;;;;;5130674;27;20243;-86
2020/12/29 08:58:24;;;;;;;12.70;10.87;;;2.60;99.90;;;;;;5131061;27;20234;-83
2020/12/29 09:00:51;;;;;;;11.90;10.40;;;2.70;99.90;;;;;;5130680;27;20277;-83
2020/12/29 09:03:23;;;;;;;12.70;11.10;;;2.80;99.90;;;;;;5131372;27;20668;-83
2020/12/29 09:05:51;;;;;;;13.87;11.10;;;2.80;99.90;;;;;;5131333;27;20369;-85
2020/12/29 09:08:26;;;;;;;12.20;10.87;;;2.90;99.90;;;;;;5131264;27;20228;-84
2020/12/29 09:11:08;;;;;;;12.47;11.03;;;2.90;99.90;;;;;;5130672;27;20218;-85
2020/12/29 09:13:34;;;;;;;12.77;10.80;;;3.10;99.90;;;;;;5131253;27;20192;-85
2020/12/29 09:16:10;;;;;;;11.93;10.40;;;3.10;99.90;;;;;;5131198;27;20338;-83
2020/12/29 09:18:41;;;;;;;12.13;10.53;;;3.20;99.90;;;;;;5130820;27;20227;-84
2020/12/29 09:21:21;;;;;;;11.37;9.33;;;3.20;99.90;;;;;;5130881;27;20201;-85
2020/12/29 09:23:57;;;;;;;11.43;10.20;;;3.30;99.90;;;;;;5131177;27;20212;-83
2020/12/29 09:26:24;;;;;;;13.00;10.57;;;3.30;99.90;;;;;;5131210;27;20200;-83
2020/12/29 09:28:50;;;;;;;11.00;9.90;;;3.40;99.90;;;;;;5131103;27;20205;-85
2020/12/29 09:31:23;;;;;;;11.63;10.43;;;3.50;99.90;;;;;;5131213;27;20206;-83
2020/12/29 09:33:50;;;;;;;12.70;10.43;;;3.60;99.90;;;;;;5130848;27;20715;-83
2020/12/29 09:36:21;;;;;;;11.93;10.43;;;3.70;99.90;;;;;;5130834;27;20205;-85
2020/12/29 09:38:49;;;;;;;12.90;10.80;;;3.80;99.90;;;;;;5130913;27;20205;-84
2020/12/29 09:41:15;;;;;;;11.93;10.47;;;3.90;99.90;;;;;;5130881;27;20567;-84
2020/12/29 09:43:43;;;;;;;11.93;10.67;;;4.00;99.90;;;;;;5130666;27;20293;-85
2020/12/29 09:46:09;;;;;;;12.50;10.80;;;4.00;99.90;;;;;;5130571;27;20209;-84
2020/12/29 09:48:36;;;;;;;11.87;10.10;;;4.10;99.90;;;;;;5130745;27;20213;-83
2020/12/29 09:51:03;;;;;;;12.57;11.03;;;4.20;99.90;;;;;;5130402;27;20201;-85
2020/12/29 09:53:30;;;;;;;11.47;10.27;;;4.20;99.90;;;;;;5130480;27;20205;-85
2020/12/29 09:55:56;;;;;;;12.13;10.87;;;4.40;99.90;;;;;;5130250;27;20335;-87
2020/12/29 09:58:23;;;;;;;10.70;9.70;;;4.40;99.90;;;;;;5130479;27;20229;-85
2020/12/29 10:00:50;;;;;;;10.53;9.50;;;4.40;99.90;;;;;;5128817;27;20211;-84
2020/12/29 10:03:16;;;;;;;10.57;9.47;;;4.40;99.90;;;;;;5110838;27;20228;-84
2020/12/29 10:05:43;;;;;;;10.03;9.03;;;4.30;99.90;;;;;;5109897;28;20667;-85
2020/12/29 10:08:11;;;;;;;11.07;9.97;;;4.30;99.90;;;;;;5109991;28;20652;-84
2020/12/29 10:10:37;;;;;;;10.67;9.50;;;4.20;99.90;;;;;;5109819;28;20239;-83
2020/12/29 10:13:04;;;;;;;11.40;9.03;;;4.20;99.90;;;;;;5113231;28;20615;-86
2020/12/29 10:15:30;;;;;;;10.93;9.50;;;4.40;99.90;;;;;;5114250;28;20208;-85
2020/12/29 10:17:56;;;;;;;10.40;9.40;;;4.50;99.90;;;;;;5114191;28;20343;-85
2020/12/29 10:20:23;;;;;;;10.33;9.33;;;4.60;99.90;;;;;;5114274;28;20209;-85
2020/12/29 10:22:49;;;;;;;10.60;9.50;;;4.70;99.90;;;;;;5113604;28;21021;-85
2020/12/29 10:25:17;;;;;;;10.27;9.27;;;4.60;99.90;;;;;;5113724;28;20389;-84
2020/12/29 10:27:44;;;;;;;9.80;8.80;;;4.60;99.90;;;;;;5113378;28;20208;-84
2020/12/29 10:30:10;;;;;;;10.30;8.97;;;4.50;99.90;;;;;;5113497;28;20324;-85
2020/12/29 10:32:37;;;;;;;9.70;8.70;;;4.40;99.90;;;;;;5113982;28;20729;-85
2020/12/29 10:35:03;;;;;;;10.17;9.10;;;4.30;99.90;;;;;;5113916;28;20220;-85
2020/12/29 10:37:30;;;;;;;10.07;9.07;;;4.20;99.90;;;;;;5113607;28;20779;-85
2020/12/29 10:39:56;;;;;;;9.87;8.87;;;4.10;99.90;;;;;;5113961;28;20283;-84
2020/12/29 10:42:23;;;;;;;10.47;9.37;;;4.10;99.90;;;;;;5113983;28;20209;-85
2020/12/29 10:44:50;;;;;;;10.20;9.10;;;4.10;99.90;;;;;;5113766;28;20202;-85
2020/12/29 10:47:16;;;;;;;10.37;8.90;;;4.10;99.90;;;;;;5114117;28;20252;-85
2020/12/29 10:49:43;;;;;;;10.23;9.17;;;4.10;99.90;;;;;;5113487;28;20208;-84
2020/12/29 10:52:09;;;;;;;9.87;8.87;;;4.10;99.90;;;;;;5113802;28;20294;-85
2020/12/29 10:54:35;;;;;;;10.03;9.03;;;4.00;99.90;;;;;;5113296;28;20210;-85
2020/12/29 10:57:02;;;;;;;9.67;8.70;;;4.00;99.90;;;;;;5113420;28;20217;-84
2020/12/29 10:59:29;;;;;;;9.50;8.50;;;4.00;99.90;;;;;;5113447;28;20880;-83
2020/12/29 11:01:56;;;;;;;9.47;8.47;;;4.00;99.90;;;;;;5113379;28;20624;-83
2020/12/29 11:04:23;;;;;;;9.80;8.80;;;4.00;99.90;;;;;;5113237;27;20240;-84
2020/12/29 11:06:49;;;;;;;11.13;9.80;;;3.90;99.90;;;;;;5113323;28;20217;-86
2020/12/29 11:09:16;;;;;;;9.10;7.97;;;3.90;99.90;;;;;;5113207;28;20202;-86
2020/12/29 11:11:42;;;;;;;8.87;8.03;;;3.90;99.90;;;;;;5113172;28;20224;-84
2020/12/29 11:14:08;;;;;;;9.33;8.43;;;3.90;99.90;;;;;;5113273;28;20286;-85
2020/12/29 11:16:36;;;;;;;9.33;8.43;;;3.90;99.90;;;;;;5113146;28;20202;-84
2020/12/29 11:19:02;;;;;;;9.50;8.60;;;3.90;99.90;;;;;;5112947;27;20206;-84
2020/12/29 11:21:28;;;;;;;9.80;8.80;;;3.90;99.90;;;;;;5112739;28;20212;-84
2020/12/29 11:23:55;;;;;;;9.63;8.63;;;3.90;99.90;;;;;;5111384;28;20202;-84
2020/12/29 11:26:21;;;;;;;9.13;8.03;;;3.80;99.90;;;;;;5112498;28;20249;-84
2020/12/29 11:28:48;;;;;;;8.90;8.00;;;3.90;99.90;;;;;;5112464;28;20293;-87
2020/12/29 11:31:16;;;;;;;8.47;7.67;;;3.90;99.90;;;;;;5112772;28;20476;-83
2020/12/29 11:33:43;;;;;;;8.63;7.63;;;3.90;99.90;;;;;;5111997;28;20949;-84
2020/12/29 11:36:10;;;;;;;8.30;7.50;;;4.00;99.90;;;;;;5112502;28;20237;-84
2020/12/29 11:38:37;;;;;;;8.40;7.60;;;4.00;99.90;;;;;;5112481;28;20264;-84
2020/12/29 11:41:03;;;;;;;8.40;7.60;;;4.00;99.90;;;;;;5112009;28;20206;-83
2020/12/29 11:43:30;;;;;;;8.33;7.53;;;4.00;99.90;;;;;;5112416;28;20625;-84
2020/12/29 11:45:56;;;;;;;8.03;7.33;;;4.00;99.90;;;;;;5111910;28;20239;-84
2020/12/29 11:48:23;;;;;;;8.87;7.73;;;4.00;99.90;;;;;;5112230;28;20676;-84
2020/12/29 11:50:51;;;;;;;7.77;7.03;;;4.00;99.90;;;;;;5112573;28;20382;-88
2020/12/29 11:53:17;;;;;;;8.20;7.40;;;4.00;99.90;;;;;;5112177;28;20219;-84
2020/12/29 11:55:44;;;;;;;9.17;7.90;;;3.90;99.90;;;;;;5111766;27;20677;-85
2020/12/29 11:58:10;;;;;;;8.80;7.90;;;4.00;99.90;;;;;;5112063;28;20365;-84
2020/12/29 12:00:36;;;;;;;8.50;7.60;;;3.90;99.90;;;;;;5112302;28;20301;-84
2020/12/29 12:03:03;;;;;;;8.73;7.67;;;3.90;99.90;;;;;;5111928;28;20210;-84
2020/12/29 12:05:29;;;;;;;8.27;7.37;;;3.90;99.90;;;;;;5111878;27;20672;-84
2020/12/29 12:07:56;;;;;;;9.17;8.23;;;3.90;99.90;;;;;;5111981;28;20266;-83
2020/12/29 12:10:23;;;;;;;8.50;7.70;;;3.90;99.90;;;;;;5111257;28;20202;-82
2020/12/29 12:12:49;;;;;;;7.97;7.17;;;3.90;99.90;;;;;;5111901;28;20744;-83
2020/12/29 12:15:15;;;;;;;8.40;7.53;;;3.90;99.90;;;;;;5112062;28;20285;-86
2020/12/29 12:17:42;;;;;;;8.20;7.40;;;3.90;99.90;;;;;;5111821;28;20257;-85
2020/12/29 12:20:08;;;;;;;7.40;6.63;;;3.90;99.90;;;;;;5111815;28;20350;-84
2020/12/29 12:22:35;;;;;;;8.33;7.53;;;3.90;99.90;;;;;;5111618;28;20285;-84
2020/12/29 12:25:03;;;;;;;8.53;7.50;;;3.90;99.90;;;;;;5111942;28;20206;-85
2020/12/29 12:27:29;;;;;;;8.17;7.37;;;3.90;99.90;;;;;;5111748;28;20638;-85
2020/12/29 12:29:57;;;;;;;7.87;7.07;;;4.00;99.90;;;;;;5111447;28;20217;-83
2020/12/29 12:32:24;;;;;;;8.67;7.83;;;4.00;99.90;;;;;;5111691;28;20258;-85
2020/12/29 12:34:50;;;;;;;9.57;7.27;;;4.10;99.90;;;;;;5110666;28;20665;-83
2020/12/29 12:37:16;;;;;;;7.20;6.60;;;4.10;99.90;;;;;;5111050;28;20759;-84
2020/12/29 12:39:43;;;;;;;8.03;7.20;;;4.20;99.90;;;;;;5111493;28;20202;-84
2020/12/29 12:42:11;;;;;;;8.10;7.30;;;4.20;99.90;;;;;;5110984;28;20637;-84
2020/12/29 12:44:39;;;;;;;7.43;6.73;;;4.30;99.90;;;;;;5111089;28;20259;-84
2020/12/29 12:47:06;;;;;;;7.90;7.20;;;4.30;99.90;;;;;;5110903;28;20212;-85